Time;durP1;ratioP1;P1;durP2;ratioP2;P2;SDS_P1;SDS_P2;PMS_P1;PMS_P2;Temp;Humidity;BMP_temperature;BMP_pressure;BME280_temperature;BME280_humidity;BME280_pressure;Samples;Min_cycle;Max_cycle;Signal;HPM_P1;HPM_P2
2021/06/10 00:00:24;;;;;;;7.22;6.62;;;;;;;16.58;93.25;99156.46;1616295;88;21093;-74
2021/06/10 00:02:50;;;;;;;8.03;7.40;;;;;;;16.54;93.35;99152.72;1626015;87;20869;-71
2021/06/10 00:05:20;;;;;;;9.18;7.58;;;;;;;16.50;93.61;99151.13;1641523;85;20981;-71
2021/06/10 00:07:48;;;;;;;7.83;6.90;;;;;;;16.46;93.85;99160.19;1627491;88;20938;-70
2021/06/10 00:10:16;;;;;;;8.05;7.25;;;;;;;16.43;94.39;99163.51;1615056;88;21505;-71
2021/06/10 00:12:44;;;;;;;10.80;7.90;;;;;;;16.42;94.49;99161.34;1626008;87;20961;-69
2021/06/10 00:15:16;;;;;;;8.50;7.80;;;;;;;16.41;94.73;99162.45;1625576;87;21041;-70
2021/06/10 00:17:43;;;;;;;7.40;6.70;;;;;;;16.40;94.74;99156.75;1626068;87;20960;-69
2021/06/10 00:20:12;;;;;;;9.08;7.72;;;;;;;16.38;94.91;99160.89;1626339;87;20998;-69
2021/06/10 00:22:39;;;;;;;7.95;7.20;;;;;;;16.37;95.16;99156.02;1614898;88;20893;-71
2021/06/10 00:25:07;;;;;;;8.35;7.58;;;;;;;16.37;95.36;99164.16;1627451;88;21163;-72
2021/06/10 00:27:34;;;;;;;7.80;7.10;;;;;;;16.35;95.47;99156.08;1625183;87;21002;-74
2021/06/10 00:30:01;;;;;;;7.55;6.95;;;;;;;16.33;95.62;99155.56;1637070;87;20999;-74
2021/06/10 00:32:27;;;;;;;8.00;7.30;;;;;;;16.30;95.95;99161.59;1667618;85;21415;-76
2021/06/10 00:34:53;;;;;;;9.00;7.95;;;;;;;16.28;96.18;99152.39;1666071;86;20989;-75
2021/06/10 00:37:20;;;;;;;7.40;6.80;;;;;;;16.30;96.28;99149.39;1654979;85;21088;-76
2021/06/10 00:39:46;;;;;;;8.60;7.80;;;;;;;16.31;96.27;99153.69;1679420;84;21040;-79
2021/06/10 00:42:13;;;;;;;7.80;7.20;;;;;;;16.31;96.19;99148.26;1679377;85;20903;-77
2021/06/10 00:44:40;;;;;;;7.67;6.75;;;;;;;16.31;96.21;99148.26;1673072;84;21622;-79
2021/06/10 00:47:06;;;;;;;7.95;7.17;;;;;;;16.32;96.21;99149.88;1654360;86;21511;-78
2021/06/10 00:49:32;;;;;;;8.30;7.60;;;;;;;16.33;96.20;99144.16;1665847;85;21058;-78
2021/06/10 00:51:59;;;;;;;8.95;8.13;;;;;;;16.35;96.10;99141.15;1670470;85;20872;-69
2021/06/10 00:54:26;;;;;;;8.65;7.55;;;;;;;16.34;95.93;99139.53;1678626;84;20961;-70
2021/06/10 00:56:52;;;;;;;7.90;7.20;;;;;;;16.34;95.80;99143.61;1679305;85;20966;-71
2021/06/10 00:59:19;;;;;;;7.37;6.78;;;;;;;16.31;95.82;99135.49;1679382;85;20923;-70
2021/06/10 01:01:45;;;;;;;8.25;7.45;;;;;;;16.30;95.89;99142.05;1679749;84;21046;-70
2021/06/10 01:04:11;;;;;;;9.13;8.25;;;;;;;16.29;96.05;99140.44;1679348;84;20992;-69
2021/06/10 01:06:54;;;;;;;8.15;7.40;;;;;;;16.28;96.02;99142.09;1679500;85;20884;-69
2021/06/10 01:09:39;;;;;;;8.63;7.83;;;;;;;16.26;96.06;99139.66;1679472;85;21425;-73
2021/06/10 01:12:24;;;;;;;9.33;7.65;;;;;;;16.25;96.12;99145.41;1667979;85;21531;-69
2021/06/10 01:15:02;;;;;;;9.15;8.10;;;;;;;16.24;96.35;99146.51;1679308;85;21909;-70
2021/06/10 01:17:28;;;;;;;8.28;7.58;;;;;;;16.21;96.63;99143.83;1679571;85;21461;-69
2021/06/10 01:20:03;;;;;;;7.50;6.90;;;;;;;16.19;96.78;99144.69;1657901;85;21010;-69
2021/06/10 01:23:00;;;;;;;8.35;7.12;;;;;;;16.18;96.99;99139.01;1679808;84;20856;-69
2021/06/10 01:25:54;;;;;;;8.75;7.72;;;;;;;16.17;97.09;99137.95;1680735;84;21548;-69
2021/06/10 01:28:34;;;;;;;7.67;6.97;;;;;;;16.17;97.29;99142.02;1679440;85;21409;-70
2021/06/10 01:31:07;;;;;;;12.60;8.03;;;;;;;16.17;97.59;99144.17;1678796;85;20987;-69
2021/06/10 01:33:38;;;;;;;8.75;7.87;;;;;;;16.18;97.57;99135.48;1641972;86;20954;-70
2021/06/10 01:36:12;;;;;;;8.45;7.55;;;;;;;16.19;97.43;99135.20;1645643;84;21018;-70
2021/06/10 01:38:40;;;;;;;8.68;7.65;;;;;;;16.19;97.42;99131.67;1624636;87;20965;-69
2021/06/10 01:41:07;;;;;;;10.13;8.13;;;;;;;16.20;97.64;99133.30;1638359;86;21219;-70
2021/06/10 01:43:37;;;;;;;8.78;7.95;;;;;;;16.21;97.68;99137.63;1641549;86;21008;-69
2021/06/10 01:46:04;;;;;;;8.53;7.75;;;;;;;16.24;97.61;99131.03;1667193;86;21520;-69
2021/06/10 01:48:31;;;;;;;7.87;7.17;;;;;;;16.24;97.57;99137.01;1641966;86;20923;-69
2021/06/10 01:51:00;;;;;;;8.00;7.30;;;;;;;16.23;97.66;99144.34;1621991;86;20986;-69
2021/06/10 01:53:26;;;;;;;7.70;7.10;;;;;;;16.24;97.82;99141.08;1624866;87;21747;-69
2021/06/10 01:55:56;;;;;;;9.83;7.90;;;;;;;16.26;97.84;99140.24;1666962;86;20940;-69
2021/06/10 01:58:22;;;;;;;9.58;8.63;;;;;;;16.24;97.80;99143.25;1674923;85;21032;-69
2021/06/10 02:00:50;;;;;;;7.75;7.05;;;;;;;16.27;97.77;99145.89;1666188;86;20991;-70
2021/06/10 02:03:16;;;;;;;7.65;7.05;;;;;;;16.28;97.73;99145.61;1667406;84;20987;-70
2021/06/10 02:05:43;;;;;;;8.28;7.47;;;;;;;16.29;97.69;99141.80;1667121;86;21891;-69
2021/06/10 02:08:12;;;;;;;9.90;7.95;;;;;;;16.29;97.67;99140.44;1640617;86;20911;-70
2021/06/10 02:10:43;;;;;;;8.40;7.67;;;;;;;16.31;97.63;99143.64;1640452;87;20917;-70
2021/06/10 02:13:11;;;;;;;8.00;7.20;;;;;;;16.31;97.51;99138.21;1638672;87;20960;-69
2021/06/10 02:15:38;;;;;;;9.53;7.22;;;;;;;16.31;97.46;99144.19;1665140;86;21457;-69
2021/06/10 02:18:04;;;;;;;8.55;7.70;;;;;;;16.31;97.58;99139.56;1667229;86;21858;-69
2021/06/10 02:20:31;;;;;;;9.40;8.60;;;;;;;16.32;97.55;99134.95;1666845;86;20992;-70
2021/06/10 02:22:58;;;;;;;9.73;8.90;;;;;;;16.31;97.55;99137.40;1642174;86;21054;-69
2021/06/10 02:25:25;;;;;;;8.85;7.95;;;;;;;16.28;97.64;99140.73;1642051;86;20955;-69
2021/06/10 02:27:51;;;;;;;7.92;7.22;;;;;;;16.27;97.82;99135.84;1642544;86;20865;-69
2021/06/10 02:30:19;;;;;;;8.13;7.47;;;;;;;16.28;97.99;99145.61;1667417;85;21217;-69
2021/06/10 02:32:45;;;;;;;8.85;8.05;;;;;;;16.27;98.06;99145.34;1667666;84;20945;-70
2021/06/10 02:35:14;;;;;;;7.97;7.17;;;;;;;16.29;98.16;99149.13;1623540;87;21044;-69
2021/06/10 02:37:44;;;;;;;7.83;7.03;;;;;;;16.29;98.16;99144.51;1591439;89;20968;-68
2021/06/10 02:40:19;;;;;;;10.00;7.67;;;;;;;16.29;98.10;99145.86;1640684;87;20941;-69
2021/06/10 02:42:47;;;;;;;8.53;7.28;;;;;;;16.29;98.18;99148.58;1640031;87;21560;-68
2021/06/10 02:45:14;;;;;;;8.23;7.50;;;;;;;16.31;98.33;99149.61;1640370;87;20949;-71
2021/06/10 02:47:41;;;;;;;9.05;8.08;;;;;;;16.34;98.37;99151.75;1615714;86;21009;-69
2021/06/10 02:50:13;;;;;;;8.70;7.90;;;;;;;16.35;98.25;99146.03;1637318;86;26128;-70
2021/06/10 02:52:49;;;;;;;9.10;8.27;;;;;;;16.38;98.10;99148.13;1640765;85;20915;-68
2021/06/10 02:55:16;;;;;;;8.98;8.18;;;;;;;16.38;97.98;99149.48;1667613;85;21056;-68
2021/06/10 02:57:44;;;;;;;9.10;8.30;;;;;;;16.38;97.98;99151.39;1640475;87;21055;-69
2021/06/10 03:00:12;;;;;;;8.28;7.58;;;;;;;16.38;98.04;99147.32;1620677;87;20901;-69
2021/06/10 03:02:39;;;;;;;10.93;8.10;;;;;;;16.40;98.09;99154.05;1629856;86;20934;-69
2021/06/10 03:05:10;;;;;;;8.18;7.35;;;;;;;16.43;98.07;99135.01;1640559;86;21522;-69
2021/06/10 03:07:37;;;;;;;8.45;7.75;;;;;;;16.45;98.08;99144.44;1618231;87;21159;-70
2021/06/10 03:10:08;;;;;;;8.10;7.40;;;;;;;16.48;97.95;99144.41;1640363;87;21004;-70
2021/06/10 03:12:37;;;;;;;8.38;7.67;;;;;;;16.51;97.91;99145.97;1627991;87;21060;-68
2021/06/10 03:15:07;;;;;;;7.60;6.90;;;;;;;16.56;97.90;99139.63;1640999;86;21023;-71
2021/06/10 03:17:33;;;;;;;7.47;6.87;;;;;;;16.64;97.84;99142.23;1668974;85;20916;-70
2021/06/10 03:20:01;;;;;;;8.78;7.92;;;;;;;16.67;97.53;99146.50;1640851;86;21053;-73
2021/06/10 03:22:27;;;;;;;8.03;7.33;;;;;;;16.73;97.36;99142.58;1627048;86;20866;-69
2021/06/10 03:24:54;;;;;;;7.92;7.10;;;;;;;16.75;97.15;99146.33;1640429;87;21041;-70
2021/06/10 03:27:21;;;;;;;9.53;8.73;;;;;;;16.79;97.20;99148.13;1639164;87;20912;-69
2021/06/10 03:29:47;;;;;;;8.15;7.45;;;;;;;16.84;97.15;99153.45;1662543;86;20924;-69
2021/06/10 03:32:14;;;;;;;8.35;7.60;;;;;;;16.92;97.04;99143.80;1580238;88;21536;-70
2021/06/10 03:34:40;;;;;;;8.93;8.13;;;;;;;16.99;96.84;99144.98;1616731;87;20860;-69
2021/06/10 03:37:07;;;;;;;7.67;7.08;;;;;;;17.07;96.50;99140.77;1625300;88;20911;-70
2021/06/10 03:39:33;;;;;;;7.85;7.10;;;;;;;17.13;96.12;99147.67;1634509;87;20939;-70
2021/06/10 03:42:00;;;;;;;7.95;7.28;;;;;;;17.18;95.83;99138.59;1629515;87;21488;-69
2021/06/10 03:44:31;;;;;;;7.90;7.22;;;;;;;17.25;95.61;99143.07;1629692;87;21071;-69
2021/06/10 03:46:58;;;;;;;9.50;8.53;;;;;;;17.33;95.14;99152.65;1629341;87;21486;-70
2021/06/10 03:49:25;;;;;;;10.88;7.33;;;;;;;17.39;94.42;99141.11;1648783;87;20943;-71
2021/06/10 03:51:53;;;;;;;7.87;7.22;;;;;;;17.46;94.13;99153.70;1624165;88;21074;-69
2021/06/10 03:54:20;;;;;;;8.70;7.90;;;;;;;17.55;93.70;99148.35;1616028;87;20940;-73
2021/06/10 03:56:46;;;;;;;7.87;7.28;;;;;;;17.62;92.78;99154.17;1651354;86;21070;-69
2021/06/10 03:59:14;;;;;;;11.85;7.33;;;;;;;17.68;92.22;99149.67;1654105;86;20960;-70
2021/06/10 04:01:40;;;;;;;7.80;7.10;;;;;;;17.77;92.08;99155.17;1654485;86;21100;-70
2021/06/10 04:04:07;;;;;;;8.10;7.37;;;;;;;17.83;91.29;99141.70;1653418;86;20864;-71
2021/06/10 04:06:37;;;;;;;6.90;6.20;;;;;;;17.88;90.45;99145.65;1648547;86;21476;-69
2021/06/10 04:09:07;;;;;;;8.88;8.08;;;;;;;17.95;89.95;99147.91;1630115;87;20912;-69
2021/06/10 04:11:37;;;;;;;8.78;8.05;;;;;;;18.02;89.76;99151.00;1648863;86;21488;-68
2021/06/10 04:14:04;;;;;;;8.68;7.90;;;;;;;18.09;89.32;99151.34;1648814;86;21513;-69
2021/06/10 04:16:32;;;;;;;8.05;7.35;;;;;;;18.14;89.16;99156.66;1648477;87;20990;-69
2021/06/10 04:19:00;;;;;;;8.33;7.50;;;;;;;18.19;88.71;99152.44;1629067;87;21010;-68
2021/06/10 04:21:26;;;;;;;9.13;6.60;;;;;;;18.24;88.56;99155.84;1648870;87;21190;-72
2021/06/10 04:23:54;;;;;;;9.40;7.90;;;;;;;18.29;87.94;99157.06;1629731;87;21580;-69
2021/06/10 04:26:20;;;;;;;9.40;8.70;;;;;;;18.33;87.87;99149.06;1629645;87;20896;-68
2021/06/10 04:28:48;;;;;;;9.45;8.55;;;;;;;18.38;87.67;99146.77;1648724;86;20912;-69
2021/06/10 04:31:17;;;;;;;10.60;7.78;;;;;;;18.43;87.41;99151.52;1642405;85;20930;-69
2021/06/10 04:33:43;;;;;;;8.35;7.42;;;;;;;18.47;87.03;99151.12;1667680;85;21555;-68
2021/06/10 04:36:10;;;;;;;7.97;7.28;;;;;;;18.53;86.78;99153.98;1667489;86;20856;-67
2021/06/10 04:38:38;;;;;;;12.33;8.13;;;;;;;18.60;86.72;99150.81;1667623;86;20983;-69
2021/06/10 04:41:04;;;;;;;7.60;7.00;;;;;;;18.68;86.53;99148.67;1644387;86;20951;-69
2021/06/10 04:43:31;;;;;;;7.92;7.17;;;;;;;18.76;86.06;99152.52;1667698;86;20932;-68
2021/06/10 04:45:57;;;;;;;7.28;6.67;;;;;;;18.81;85.50;99150.45;1644122;86;21967;-69
2021/06/10 04:48:25;;;;;;;7.65;7.05;;;;;;;18.87;85.11;99151.92;1667738;85;20911;-69
2021/06/10 04:50:52;;;;;;;6.92;6.42;;;;;;;18.95;84.69;99161.23;1667638;86;21661;-68
2021/06/10 04:53:19;;;;;;;7.87;7.15;;;;;;;19.00;84.29;99150.98;1667940;86;20871;-68
2021/06/10 04:55:46;;;;;;;6.83;6.22;;;;;;;19.02;83.84;99158.84;1667458;85;21003;-67
2021/06/10 04:58:13;;;;;;;7.80;7.00;;;;;;;19.02;83.62;99156.93;1644364;86;21274;-68
2021/06/10 05:00:40;;;;;;;6.90;6.28;;;;;;;19.03;83.40;99149.55;1622560;86;20931;-70
2021/06/10 05:03:07;;;;;;;6.97;6.37;;;;;;;19.04;82.29;99155.25;1668128;86;21014;-69
2021/06/10 05:05:33;;;;;;;8.33;7.62;;;;;;;19.07;82.05;99150.52;1667689;85;20966;-69
2021/06/10 05:08:00;;;;;;;7.78;7.08;;;;;;;19.06;81.79;99153.80;1667862;85;21432;-69
2021/06/10 05:10:27;;;;;;;7.12;6.53;;;;;;;19.07;82.00;99154.05;1644267;86;21078;-69
2021/06/10 05:12:54;;;;;;;7.05;6.45;;;;;;;19.12;81.81;99156.63;1667398;85;21527;-71
2021/06/10 05:15:21;;;;;;;6.62;6.00;;;;;;;19.18;81.75;99160.00;1667599;86;20922;-69
2021/06/10 05:17:47;;;;;;;6.72;6.12;;;;;;;19.22;81.80;99161.52;1667578;85;21003;-68
2021/06/10 05:20:15;;;;;;;8.23;5.80;;;;;;;19.23;80.98;99156.31;1667730;86;20951;-70
2021/06/10 05:22:42;;;;;;;7.62;6.62;;;;;;;19.25;80.53;99152.14;1644191;86;21118;-69
2021/06/10 05:25:09;;;;;;;7.47;6.87;;;;;;;19.27;80.14;99143.09;1667403;86;21002;-69
2021/06/10 05:27:36;;;;;;;6.42;5.92;;;;;;;19.25;80.43;99153.50;1667746;86;20974;-69
2021/06/10 05:30:05;;;;;;;9.88;7.15;;;;;;;19.27;80.08;99155.36;1644136;86;21037;-69
2021/06/10 05:32:31;;;;;;;6.22;5.62;;;;;;;19.32;80.24;99155.20;1641988;86;20955;-69
2021/06/10 05:34:58;;;;;;;6.40;5.90;;;;;;;19.37;79.67;99163.23;1667025;85;21944;-69
2021/06/10 05:37:24;;;;;;;7.70;7.00;;;;;;;19.43;79.15;99152.38;1667025;86;20984;-69
2021/06/10 05:39:52;;;;;;;5.87;5.37;;;;;;;19.45;78.92;99154.27;1666644;86;21002;-73
2021/06/10 05:42:19;;;;;;;6.40;5.80;;;;;;;19.47;78.56;99162.91;1667192;85;20953;-70
2021/06/10 05:44:45;;;;;;;5.87;5.37;;;;;;;19.49;78.40;99157.14;1641740;86;21018;-69
2021/06/10 05:47:12;;;;;;;13.05;5.87;;;;;;;19.52;78.45;99160.02;1667252;86;21942;-69
2021/06/10 05:49:40;;;;;;;7.03;6.00;;;;;;;19.54;78.29;99156.98;1641781;86;20855;-68
2021/06/10 05:52:07;;;;;;;7.30;6.60;;;;;;;19.57;77.61;99159.86;1651488;86;21501;-68
2021/06/10 05:54:33;;;;;;;7.80;7.10;;;;;;;19.63;77.83;99167.88;1667297;86;21076;-68
2021/06/10 05:57:00;;;;;;;8.03;6.80;;;;;;;19.65;78.07;99162.92;1641739;86;21464;-68
2021/06/10 05:59:26;;;;;;;4.95;4.58;;;;;;;19.62;76.88;99160.25;1666913;85;21127;-68
2021/06/10 06:01:54;;;;;;;6.78;6.08;;;;;;;19.63;76.64;99157.77;1667009;86;21056;-69
2021/06/10 06:04:20;;;;;;;9.73;7.62;;;;;;;19.67;77.14;99163.37;1667178;86;20901;-73
2021/06/10 06:06:48;;;;;;;7.25;6.62;;;;;;;19.74;77.21;99166.44;1666508;86;21492;-69
2021/06/10 06:09:15;;;;;;;7.47;6.78;;;;;;;19.81;76.80;99164.81;1651925;86;20952;-68
2021/06/10 06:11:42;;;;;;;6.20;5.65;;;;;;;19.83;76.44;99160.41;1667232;85;21334;-69
2021/06/10 06:14:12;;;;;;;6.80;5.53;;;;;;;19.84;75.30;99168.28;1666886;86;20932;-68
2021/06/10 06:16:43;;;;;;;5.92;5.33;;;;;;;19.85;74.74;99165.80;1667293;86;21548;-69
2021/06/10 06:19:12;;;;;;;7.30;5.62;;;;;;;19.88;73.86;99167.06;1642126;86;20875;-67
2021/06/10 06:21:42;;;;;;;6.55;6.05;;;;;;;19.94;74.37;99172.59;1667047;86;20984;-68
2021/06/10 06:24:08;;;;;;;7.55;6.75;;;;;;;19.96;73.94;99158.05;1667348;86;21119;-70
2021/06/10 06:26:35;;;;;;;5.30;4.90;;;;;;;19.95;74.30;99170.89;1667294;86;20988;-69
2021/06/10 06:29:03;;;;;;;5.17;4.67;;;;;;;20.00;72.78;99160.36;1664561;86;20900;-69
2021/06/10 06:31:30;;;;;;;6.30;4.95;;;;;;;20.06;71.72;99154.17;1664290;85;20944;-69
2021/06/10 06:33:57;;;;;;;5.78;5.22;;;;;;;20.12;71.94;99156.41;1667060;86;20936;-70
2021/06/10 06:36:25;;;;;;;5.65;5.15;;;;;;;20.23;72.30;99148.67;1663612;86;21839;-69
2021/06/10 06:38:52;;;;;;;9.05;5.35;;;;;;;20.35;71.32;99155.63;1664206;86;21022;-68
2021/06/10 06:41:19;;;;;;;4.47;4.17;;;;;;;20.54;71.54;99153.86;1667390;86;21441;-69
2021/06/10 06:43:45;;;;;;;5.28;4.87;;;;;;;20.54;71.54;99153.86;1664575;86;20984;-69
2021/06/10 06:46:12;;;;;;;5.62;5.12;;;;;;;20.56;71.15;99169.38;1667155;86;20902;-68
2021/06/10 06:48:38;;;;;;;6.20;4.30;;;;;;;20.61;70.09;99163.73;1667084;86;21209;-69
2021/06/10 06:51:06;;;;;;;5.20;4.33;;;;;;;20.64;69.66;99160.33;1667009;86;20989;-68
2021/06/10 06:53:32;;;;;;;4.20;3.90;;;;;;;20.66;69.37;99160.81;1667113;86;21440;-67
2021/06/10 06:56:00;;;;;;;6.08;4.80;;;;;;;20.67;68.89;99160.47;1666827;86;20961;-69
2021/06/10 06:58:27;;;;;;;5.10;4.60;;;;;;;20.65;68.87;99160.58;1629093;86;21013;-68
2021/06/10 07:00:54;;;;;;;5.30;4.80;;;;;;;20.66;68.21;99170.38;1667154;86;21435;-68
2021/06/10 07:03:21;;;;;;;4.37;3.98;;;;;;;20.69;68.43;99169.71;1651159;86;21005;-69
2021/06/10 07:05:49;;;;;;;5.40;4.90;;;;;;;20.71;68.62;99156.53;1641637;86;21006;-69
2021/06/10 07:08:15;;;;;;;6.17;4.83;;;;;;;20.76;68.18;99171.38;1651560;86;21007;-68
2021/06/10 07:10:42;;;;;;;5.05;3.30;;;;;;;20.78;66.11;99163.07;1667087;85;21437;-68
2021/06/10 07:13:08;;;;;;;4.95;4.12;;;;;;;20.83;65.50;99168.35;1664217;86;21938;-69
2021/06/10 07:15:38;;;;;;;4.67;4.28;;;;;;;20.89;65.38;99161.57;1667034;85;21593;-68
2021/06/10 07:18:05;;;;;;;4.25;3.85;;;;;;;20.98;65.07;99160.14;1655012;86;21024;-69
2021/06/10 07:20:31;;;;;;;5.62;4.30;;;;;;;21.07;66.09;99165.55;1667083;86;22211;-70
2021/06/10 07:22:58;;;;;;;5.00;4.62;;;;;;;21.07;66.09;99165.55;1667238;86;20924;-69
2021/06/10 07:25:24;;;;;;;4.30;3.75;;;;;;;21.13;66.13;99162.86;1667349;85;21037;-69
2021/06/10 07:27:50;;;;;;;5.42;4.37;;;;;;;21.19;66.14;99165.11;1667228;86;20949;-68
2021/06/10 07:30:21;;;;;;;5.15;4.53;;;;;;;21.28;65.88;99168.58;1667271;86;20999;-73
2021/06/10 07:32:47;;;;;;;4.80;4.30;;;;;;;21.31;65.81;99180.22;1667347;85;21519;-69
2021/06/10 07:35:14;;;;;;;4.45;4.05;;;;;;;21.27;66.01;99173.81;1642022;86;21014;-69
2021/06/10 07:37:43;;;;;;;4.80;4.40;;;;;;;21.30;66.42;99181.91;1667123;86;21086;-70
2021/06/10 07:40:11;;;;;;;3.62;3.42;;;;;;;21.31;65.65;99182.15;1664299;86;20995;-71
2021/06/10 07:42:40;;;;;;;4.45;4.15;;;;;;;21.27;64.61;99169.71;1667139;86;20885;-69
2021/06/10 07:45:08;;;;;;;5.00;4.50;;;;;;;21.24;64.67;99166.28;1664464;86;20924;-69
2021/06/10 07:47:35;;;;;;;11.25;3.60;;;;;;;21.26;64.88;99182.34;1617559;86;21010;-69
2021/06/10 07:50:03;;;;;;;6.42;5.83;;;;;;;21.30;64.03;99164.93;1667168;86;21117;-69
2021/06/10 07:52:30;;;;;;;7.12;4.17;;;;;;;21.35;63.78;99165.30;1666959;86;20895;-69
2021/06/10 07:54:56;;;;;;;4.08;3.72;;;;;;;21.42;62.83;99170.25;1641801;86;20946;-68
2021/06/10 07:57:23;;;;;;;3.80;3.45;;;;;;;21.49;62.43;99169.93;1641843;86;21005;-68
2021/06/10 07:59:49;;;;;;;3.87;3.58;;;;;;;21.61;62.43;99171.94;1667130;86;20891;-68
2021/06/10 08:02:15;;;;;;;4.58;4.08;;;;;;;21.72;62.17;99169.83;1666924;86;21013;-68
2021/06/10 08:04:42;;;;;;;4.87;3.87;;;;;;;21.82;62.57;99182.31;1667134;86;20887;-69
2021/06/10 08:07:11;;;;;;;5.37;4.37;;;;;;;21.85;62.42;99182.19;1646092;86;20894;-68
2021/06/10 08:09:38;;;;;;;3.90;3.60;;;;;;;21.76;62.89;99180.91;1663088;86;20893;-68
2021/06/10 08:12:05;;;;;;;4.70;4.25;;;;;;;21.68;62.99;99177.66;1646449;86;21018;-70
2021/06/10 08:14:32;;;;;;;3.62;3.40;;;;;;;21.58;61.90;99176.72;1668410;86;21001;-69
2021/06/10 08:16:59;;;;;;;3.80;3.50;;;;;;;21.52;61.83;99176.13;1673316;84;20908;-70
2021/06/10 08:19:25;;;;;;;3.95;3.47;;;;;;;21.43;61.42;99172.66;1670521;85;20999;-74
2021/06/10 08:21:52;;;;;;;4.30;3.90;;;;;;;21.41;61.99;99163.97;1651909;86;21314;-71
2021/06/10 08:24:19;;;;;;;6.90;3.85;;;;;;;21.50;62.03;99174.84;1667111;86;20959;-70
2021/06/10 08:26:46;;;;;;;3.95;3.55;;;;;;;21.60;62.00;99175.80;1667478;86;21473;-73
2021/06/10 08:29:13;;;;;;;5.25;3.98;;;;;;;21.67;61.53;99182.92;1619547;87;21055;-72
2021/06/10 08:31:40;;;;;;;3.85;3.42;;;;;;;21.68;60.57;99167.52;1627835;86;21002;-69
2021/06/10 08:34:06;;;;;;;3.75;3.45;;;;;;;21.70;59.81;99157.61;1666837;86;20990;-71
2021/06/10 08:36:35;;;;;;;3.12;2.87;;;;;;;21.69;59.64;99159.53;1644276;86;21083;-72
2021/06/10 08:39:04;;;;;;;3.83;3.47;;;;;;;21.70;60.26;99157.61;1667257;86;21457;-71
2021/06/10 08:41:33;;;;;;;4.03;3.62;;;;;;;21.69;60.50;99171.86;1667216;86;20895;-71
2021/06/10 08:44:00;;;;;;;3.75;3.45;;;;;;;21.67;61.00;99187.03;1644248;86;20980;-73
2021/06/10 08:46:27;;;;;;;8.35;3.60;;;;;;;21.63;61.21;99184.73;1667384;86;20958;-70
2021/06/10 08:48:54;;;;;;;4.53;3.98;;;;;;;21.60;61.62;99188.13;1667265;86;20978;-71
2021/06/10 08:51:21;;;;;;;4.67;3.42;;;;;;;21.52;61.93;99186.27;1667283;86;21994;-69
2021/06/10 08:53:47;;;;;;;3.20;2.90;;;;;;;21.47;62.55;99199.58;1667298;86;21019;-67
2021/06/10 08:56:14;;;;;;;9.20;3.87;;;;;;;21.44;63.12;99187.91;1644058;86;21026;-69
2021/06/10 08:58:41;;;;;;;5.97;3.80;;;;;;;21.44;63.55;99189.28;1644153;86;20914;-68
2021/06/10 09:01:12;;;;;;;6.37;4.08;;;;;;;21.44;63.95;99180.30;1663229;86;20990;-68
2021/06/10 09:03:37;;;;;;;4.50;4.08;;;;;;;21.42;64.14;99184.73;1643846;86;21250;-69
2021/06/10 09:06:10;;;;;;;3.50;3.12;;;;;;;21.42;64.29;99180.63;1667407;85;21038;-67
2021/06/10 09:08:40;;;;;;;4.12;3.83;;;;;;;21.42;64.29;99172.42;1667361;85;20903;-68
2021/06/10 09:11:14;;;;;;;4.42;4.08;;;;;;;21.40;64.42;99181.52;1641102;86;20998;-75
2021/06/10 09:13:57;;;;;;;3.60;3.30;;;;;;;21.38;64.40;99188.47;1667442;86;20962;-72
2021/06/10 09:16:33;;;;;;;4.10;3.70;;;;;;;21.35;64.57;99194.59;1667479;86;21334;-71
2021/06/10 09:19:12;;;;;;;4.62;4.25;;;;;;;21.30;64.63;99188.75;1667269;86;20887;-74
2021/06/10 09:21:48;;;;;;;7.03;5.53;;;;;;;21.23;65.29;99198.06;1644330;86;21010;-71
2021/06/10 09:24:30;;;;;;;7.22;4.40;;;;;;;21.15;65.95;99198.34;1667181;86;21073;-73
2021/06/10 09:27:12;;;;;;;6.80;4.22;;;;;;;21.11;66.98;99191.91;1644025;86;20999;-69
2021/06/10 09:29:46;;;;;;;4.92;4.42;;;;;;;21.06;67.91;99193.45;1667441;85;20910;-72
2021/06/10 09:32:31;;;;;;;5.60;4.50;;;;;;;21.03;68.91;99198.80;1666963;86;21008;-73
2021/06/10 09:35:04;;;;;;;6.55;6.03;;;;;;;20.98;69.18;99197.62;1651553;86;20854;-72
2021/06/10 09:37:38;;;;;;;8.23;6.65;;;;;;;20.92;71.15;99191.53;1667106;86;21030;-73
2021/06/10 09:40:08;;;;;;;6.20;5.70;;;;;;;20.80;72.32;99195.55;1667250;86;21063;-73
2021/06/10 09:42:36;;;;;;;7.25;5.25;;;;;;;20.71;72.65;99194.80;1667503;86;21664;-68
2021/06/10 09:45:05;;;;;;;14.03;6.30;;;;;;;20.56;73.15;99191.23;1666963;86;20972;-71
2021/06/10 09:47:41;;;;;;;7.83;6.20;;;;;;;20.41;73.33;99187.11;1667354;86;20934;-70
2021/06/10 09:50:16;;;;;;;8.35;7.55;;;;;;;20.19;74.36;99192.78;1651306;86;22380;-70
2021/06/10 09:52:54;;;;;;;10.23;6.97;;;;;;;20.04;75.68;99191.38;1671399;85;20862;-72
2021/06/10 09:55:45;;;;;;;13.85;9.40;;;;;;;19.90;76.80;99192.12;1667366;86;21132;-72
2021/06/10 09:58:17;;;;;;;13.35;7.87;;;;;;;19.87;77.04;99191.38;1666676;86;21670;-73
2021/06/10 10:00:51;;;;;;;10.18;7.85;;;;;;;19.85;77.17;99186.82;1640555;87;21552;-70
2021/06/10 10:03:32;;;;;;;7.53;6.80;;;;;;;19.80;77.64;99188.35;1638720;87;21028;-74
2021/06/10 10:06:04;;;;;;;12.18;7.58;;;;;;;19.81;77.99;99186.64;1666288;86;21411;-67
2021/06/10 10:08:34;;;;;;;17.25;7.80;;;;;;;19.81;78.56;99188.56;1667246;85;21772;-69
2021/06/10 10:11:03;;;;;;;10.60;7.55;;;;;;;19.80;78.83;99182.34;1667300;86;20895;-77
2021/06/10 10:13:31;;;;;;;8.08;6.60;;;;;;;19.83;79.72;99184.97;1637282;87;21012;-72
2021/06/10 10:16:01;;;;;;;8.03;7.35;;;;;;;19.76;80.43;99192.27;1659964;86;21052;-72
2021/06/10 10:18:28;;;;;;;9.40;8.33;;;;;;;19.64;80.29;99184.50;1663959;85;20952;-72
2021/06/10 10:21:00;;;;;;;8.10;7.40;;;;;;;19.51;81.01;99187.09;1664303;86;21852;-72
2021/06/10 10:23:26;;;;;;;9.73;8.85;;;;;;;19.44;81.47;99185.94;1667165;85;20913;-73
2021/06/10 10:26:00;;;;;;;8.95;8.05;;;;;;;19.38;81.95;99186.63;1650053;86;21039;-73
2021/06/10 10:28:34;;;;;;;7.70;6.58;;;;;;;19.37;81.76;99178.22;1667022;86;20999;-75
2021/06/10 10:31:03;;;;;;;7.97;6.87;;;;;;;19.32;82.46;99178.37;1666917;85;21428;-77
2021/06/10 10:33:30;;;;;;;7.65;6.95;;;;;;;19.25;81.58;99171.78;1660870;86;21086;-69
2021/06/10 10:36:02;;;;;;;7.50;6.80;;;;;;;19.22;81.11;99171.88;1645899;86;21014;-68
2021/06/10 10:38:35;;;;;;;7.67;6.85;;;;;;;19.24;81.86;99167.44;1592322;89;20942;-68
2021/06/10 10:41:10;;;;;;;8.18;7.05;;;;;;;19.24;81.86;99167.44;1613202;89;20978;-69
2021/06/10 10:43:37;;;;;;;9.00;7.37;;;;;;;19.22;81.94;99168.34;1594557;88;21052;-68
2021/06/10 10:46:19;;;;;;;8.28;7.47;;;;;;;19.16;82.37;99164.41;1620233;88;21125;-79
2021/06/10 10:48:49;;;;;;;9.45;7.78;;;;;;;19.05;83.13;99151.39;1594435;88;21023;-77
2021/06/10 10:51:36;;;;;;;8.53;7.10;;;;;;;18.89;84.48;99152.98;1618364;88;20963;-74
2021/06/10 10:54:01;;;;;;;;;;;;;;;18.84;84.32;99159.38;1637106;87;21515;-75
2021/06/10 10:56:41;;;;;;;9.40;8.50;;;;;;;18.75;85.30;99163.20;1580052;90;20112;-75
2021/06/10 10:59:09;;;;;;;9.65;8.70;;;;;;;18.69;84.93;99151.64;1584019;90;21872;-78
2021/06/10 11:01:36;;;;;;;7.75;7.05;;;;;;;18.75;85.33;99157.75;1612449;88;21591;-72
2021/06/10 11:04:03;;;;;;;9.90;9.05;;;;;;;18.80;85.89;99158.97;1595044;88;21499;-75
2021/06/10 11:06:32;;;;;;;10.55;9.50;;;;;;;18.77;86.90;99167.76;1595387;88;20935;-78
2021/06/10 11:09:14;;;;;;;8.13;7.42;;;;;;;18.77;87.21;99174.02;1620407;88;20972;-83
2021/06/10 11:12:10;;;;;;;8.10;7.33;;;;;;;18.85;86.96;99169.14;1640393;87;21807;-76
2021/06/10 11:14:50;;;;;;;9.13;8.33;;;;;;;18.97;86.55;99167.98;1619625;88;21540;-74
2021/06/10 11:17:30;;;;;;;8.25;7.55;;;;;;;19.06;84.89;99170.16;1608034;88;21596;-81
2021/06/10 11:20:16;;;;;;;8.03;7.30;;;;;;;19.18;84.39;99167.59;1637042;87;20986;-75
2021/06/10 11:22:45;;;;;;;7.30;6.65;;;;;;;19.32;83.35;99174.84;1591429;89;21600;-74
2021/06/10 11:25:31;;;;;;;8.78;7.22;;;;;;;19.42;82.99;99169.89;1609228;89;21100;-72
2021/06/10 11:28:15;;;;;;;8.28;7.47;;;;;;;19.54;82.46;99161.88;1617585;88;21543;-74
2021/06/10 11:30:50;;;;;;;7.70;6.85;;;;;;;19.74;81.18;99160.98;1618208;88;21030;-75
2021/06/10 11:33:25;;;;;;;7.37;6.67;;;;;;;19.92;79.50;99153.00;1635462;85;21035;-73
2021/06/10 11:36:04;;;;;;;7.92;7.20;;;;;;;20.09;78.43;99152.17;1650533;86;21061;-77
2021/06/10 11:38:34;;;;;;;7.28;6.42;;;;;;;20.23;77.23;99152.77;1633452;87;21377;-75
2021/06/10 11:41:12;;;;;;;6.70;6.10;;;;;;;20.39;76.04;99162.04;1631016;86;20975;-85
2021/06/10 11:43:42;;;;;;;5.83;5.33;;;;;;;20.53;75.07;99170.82;1610701;88;21074;-74